createdAt,value
2023-05-19T00:01:17.811Z,21.70
2023-05-19T00:03:59.175Z,21.68
2023-05-19T00:06:29.327Z,21.64
2023-05-19T00:09:03.820Z,21.61
2023-05-19T00:11:30.987Z,21.59
2023-05-19T00:13:59.063Z,21.58
2023-05-19T00:16:26.982Z,21.56
2023-05-19T00:18:54.520Z,21.56
2023-05-19T00:21:21.545Z,21.54
2023-05-19T00:23:48.631Z,21.54
2023-05-19T00:26:15.758Z,21.52
2023-05-19T00:28:46.378Z,21.51
2023-05-19T00:31:13.478Z,21.50
2023-05-19T00:33:40.532Z,21.50
2023-05-19T00:36:08.017Z,21.49
2023-05-19T00:38:36.050Z,21.48
2023-05-19T00:41:04.042Z,21.47
2023-05-19T00:43:31.003Z,21.47
2023-05-19T00:45:58.539Z,21.46
2023-05-19T00:48:25.857Z,21.44
2023-05-19T00:51:02.118Z,21.42
2023-05-19T00:53:29.602Z,21.41
2023-05-19T00:55:56.637Z,21.38
2023-05-19T00:58:24.010Z,21.36
2023-05-19T01:00:51.127Z,21.33
2023-05-19T01:03:20.836Z,21.31
2023-05-19T01:05:47.987Z,21.29
2023-05-19T01:08:15.121Z,21.27
2023-05-19T01:10:42.280Z,21.25
2023-05-19T01:13:09.720Z,21.23
2023-05-19T01:15:41.764Z,21.21
2023-05-19T01:18:12.347Z,21.19
2023-05-19T01:20:46.561Z,21.16
2023-05-19T01:23:26.025Z,21.15
2023-05-19T01:26:31.512Z,21.13
2023-05-19T01:29:08.261Z,21.10
2023-05-19T01:31:37.227Z,21.08
2023-05-19T01:34:06.208Z,21.06
2023-05-19T01:36:33.094Z,21.05
2023-05-19T01:39:01.315Z,21.05
2023-05-19T01:41:29.654Z,21.04
2023-05-19T01:43:56.969Z,21.03
2023-05-19T01:46:24.172Z,21.02
2023-05-19T01:48:51.594Z,21.01
2023-05-19T01:51:20.095Z,20.99
2023-05-19T01:53:47.000Z,20.97
2023-05-19T01:56:17.228Z,20.96
2023-05-19T01:58:49.024Z,20.94
2023-05-19T02:01:46.108Z,20.90
2023-05-19T02:04:44.085Z,20.87
2023-05-19T02:07:15.857Z,20.85
2023-05-19T02:09:59.475Z,20.84
2023-05-19T02:12:29.187Z,20.82
2023-05-19T02:15:07.546Z,20.81
2023-05-19T02:17:36.534Z,20.79
2023-05-19T02:20:04.861Z,20.77
2023-05-19T02:22:32.072Z,20.76
2023-05-19T02:24:59.235Z,20.74
2023-05-19T02:27:26.597Z,20.72
2023-05-19T02:29:53.635Z,20.71
2023-05-19T02:32:21.146Z,20.71
2023-05-19T02:34:48.575Z,20.70
2023-05-19T02:37:15.825Z,20.69
2023-05-19T02:39:43.588Z,20.68
2023-05-19T02:42:11.121Z,20.66
2023-05-19T02:44:38.012Z,20.65
2023-05-19T02:47:05.171Z,20.64
2023-05-19T02:49:36.133Z,20.61
2023-05-19T02:52:04.384Z,20.58
2023-05-19T02:54:31.792Z,20.57
2023-05-19T02:56:58.809Z,20.55
2023-05-19T02:59:25.900Z,20.55
2023-05-19T03:01:55.601Z,20.54
2023-05-19T03:04:22.725Z,20.53
2023-05-19T03:06:50.293Z,20.52
2023-05-19T03:09:17.447Z,20.51
2023-05-19T03:11:44.386Z,20.51
2023-05-19T03:14:12.309Z,20.49
2023-05-19T03:16:41.471Z,20.48
2023-05-19T03:19:09.132Z,20.47
2023-05-19T03:21:36.299Z,20.46
2023-05-19T03:24:03.423Z,20.43
2023-05-19T03:26:30.598Z,20.35
2023-05-19T03:28:57.777Z,20.24
2023-05-19T03:31:24.925Z,20.13
2023-05-19T03:33:52.492Z,20.06
2023-05-19T03:36:19.962Z,20.08
2023-05-19T03:38:47.240Z,20.13
2023-05-19T03:41:14.268Z,20.18
2023-05-19T03:43:41.332Z,20.23
2023-05-19T03:46:09.176Z,20.27
2023-05-19T03:48:42.017Z,20.30
2023-05-19T03:51:36.877Z,20.32
2023-05-19T03:54:17.327Z,20.33
2023-05-19T03:56:44.256Z,20.33
2023-05-19T03:59:12.568Z,20.34
2023-05-19T04:01:39.724Z,20.34
2023-05-19T04:04:06.922Z,20.24
2023-05-19T04:06:34.237Z,20.22
2023-05-19T04:09:02.648Z,20.23
2023-05-19T04:16:34.124Z,20.28
2023-05-19T04:19:01.209Z,20.30
2023-05-19T04:21:28.263Z,20.32
2023-05-19T04:23:55.303Z,20.34
2023-05-19T04:26:22.783Z,20.34
2023-05-19T04:28:50.119Z,20.35
2023-05-19T04:31:17.713Z,20.37
2023-05-19T04:33:44.955Z,20.39
2023-05-19T04:36:13.958Z,20.36
2023-05-19T04:38:41.083Z,20.34
2023-05-19T04:41:12.281Z,20.34
2023-05-19T04:43:42.038Z,20.35
2023-05-19T04:46:13.422Z,20.34
2023-05-19T04:48:41.666Z,20.32
2023-05-19T04:51:08.913Z,20.30
2023-05-19T04:53:36.805Z,20.28
2023-05-19T04:56:05.809Z,20.26
2023-05-19T04:58:33.573Z,20.25
2023-05-19T05:01:00.832Z,20.26
2023-05-19T05:03:28.310Z,20.28
2023-05-19T05:05:56.828Z,20.30
2023-05-19T05:08:23.928Z,20.32
2023-05-19T05:10:52.664Z,20.34
2023-05-19T05:13:24.083Z,20.36
2023-05-19T05:15:52.487Z,20.39
2023-05-19T05:18:19.988Z,20.41
2023-05-19T05:20:48.448Z,20.42
2023-05-19T05:23:16.949Z,20.43
2023-05-19T05:25:47.228Z,20.46
2023-05-19T05:28:14.927Z,20.49
2023-05-19T05:30:42.199Z,20.49
2023-05-19T05:33:09.609Z,20.51
2023-05-19T05:35:38.758Z,20.53
2023-05-19T05:38:06.914Z,20.56
2023-05-19T05:40:34.551Z,20.58
2023-05-19T05:43:03.046Z,20.61
2023-05-19T05:45:32.425Z,20.63
2023-05-19T05:48:01.030Z,20.65
2023-05-19T05:50:28.721Z,20.66
2023-05-19T05:52:56.119Z,20.68
2023-05-19T05:55:24.472Z,20.70
2023-05-19T05:57:52.053Z,20.73
2023-05-19T06:00:19.891Z,20.75
2023-05-19T06:02:51.495Z,20.77
2023-05-19T06:05:19.510Z,20.78
2023-05-19T06:07:47.302Z,20.81
2023-05-19T06:10:18.384Z,20.82
2023-05-19T06:12:45.708Z,20.84
2023-05-19T06:15:12.871Z,20.86
2023-05-19T06:17:39.971Z,20.87
2023-05-19T06:20:08.864Z,20.88
2023-05-19T06:22:36.583Z,20.88
2023-05-19T06:25:04.196Z,20.89
2023-05-19T06:27:33.300Z,20.92
2023-05-19T06:30:02.436Z,20.95
2023-05-19T06:32:31.981Z,20.99
2023-05-19T06:35:00.629Z,21.01
2023-05-19T06:37:27.636Z,21.05
2023-05-19T06:39:55.583Z,21.08
2023-05-19T06:42:23.101Z,21.13
2023-05-19T06:44:57.114Z,21.19
2023-05-19T06:51:49.985Z,21.32
2023-05-19T06:54:17.234Z,21.42
2023-05-19T06:56:45.329Z,21.54
2023-05-19T06:59:13.790Z,21.67
2023-05-19T07:01:40.808Z,21.80
2023-05-19T07:04:08.602Z,21.94
2023-05-19T07:06:35.888Z,22.09
2023-05-19T07:09:05.291Z,22.22
2023-05-19T07:11:32.929Z,22.36
2023-05-19T07:13:59.926Z,22.49
2023-05-19T07:16:28.079Z,22.62
2023-05-19T07:18:55.105Z,22.73
2023-05-19T07:21:22.031Z,22.90
2023-05-19T07:23:49.318Z,23.12
2023-05-19T07:26:16.174Z,23.43
2023-05-19T07:28:43.861Z,23.73
2023-05-19T07:31:10.814Z,23.94
2023-05-19T07:33:37.694Z,24.08
2023-05-19T07:36:04.774Z,24.15
2023-05-19T07:38:34.634Z,24.18
2023-05-19T07:41:02.475Z,24.19
2023-05-19T07:43:29.464Z,24.22
2023-05-19T07:45:56.564Z,24.43
2023-05-19T07:48:25.881Z,24.74
2023-05-19T07:50:53.002Z,25.01
2023-05-19T07:53:20.246Z,25.21
2023-05-19T07:55:47.218Z,25.40
2023-05-19T07:58:14.382Z,25.60
2023-05-19T08:00:43.425Z,25.91
2023-05-19T08:03:10.406Z,26.20
2023-05-19T08:05:37.814Z,26.31
2023-05-19T08:08:05.213Z,26.31
2023-05-19T08:10:32.212Z,26.25
2023-05-19T08:12:59.435Z,26.07
2023-05-19T08:15:26.619Z,25.83
2023-05-19T08:17:53.654Z,25.64
2023-05-19T08:20:22.625Z,25.47
2023-05-19T08:22:49.499Z,25.47
2023-05-19T08:25:16.644Z,25.59
2023-05-19T08:27:43.545Z,25.71
2023-05-19T08:30:11.158Z,25.78
2023-05-19T08:32:38.396Z,25.82
2023-05-19T08:35:05.577Z,25.82
2023-05-19T08:37:34.124Z,25.83
2023-05-19T08:40:01.537Z,25.88
2023-05-19T08:42:28.584Z,25.94
2023-05-19T08:44:55.737Z,25.98
2023-05-19T08:47:23.093Z,25.96
2023-05-19T08:49:52.716Z,25.89
2023-05-19T08:52:32.238Z,25.87
2023-05-19T08:55:04.822Z,25.89
2023-05-19T08:57:33.001Z,25.91
2023-05-19T09:00:14.524Z,25.93
2023-05-19T09:02:50.606Z,25.91
2023-05-19T09:05:28.387Z,25.94
2023-05-19T09:07:55.512Z,25.93
2023-05-19T09:10:22.870Z,25.82
2023-05-19T09:12:50.524Z,25.72
2023-05-19T09:15:19.324Z,25.68
2023-05-19T09:17:48.305Z,25.62
2023-05-19T09:20:16.958Z,25.54
2023-05-19T09:22:48.480Z,25.44
2023-05-19T09:25:33.810Z,25.32
2023-05-19T09:28:01.057Z,25.28
2023-05-19T09:30:27.951Z,25.22
2023-05-19T09:32:54.875Z,25.21
2023-05-19T09:35:21.863Z,25.19
2023-05-19T09:37:48.764Z,25.18
2023-05-19T09:40:15.940Z,25.19
2023-05-19T09:42:44.371Z,25.21
2023-05-19T09:45:11.796Z,25.27
2023-05-19T09:47:41.365Z,25.35
2023-05-19T09:50:10.059Z,25.48
2023-05-19T09:52:42.814Z,25.61
2023-05-19T09:55:11.118Z,25.71
2023-05-19T09:57:38.750Z,25.75
2023-05-19T10:00:17.859Z,25.78
2023-05-19T10:02:46.645Z,25.80
2023-05-19T10:05:20.200Z,25.82
2023-05-19T10:07:48.746Z,25.86
2023-05-19T10:10:16.003Z,25.91
2023-05-19T10:12:43.265Z,25.94
2023-05-19T10:15:11.933Z,25.92
2023-05-19T10:17:40.670Z,25.92
2023-05-19T10:20:14.903Z,25.94
2023-05-19T10:22:43.143Z,25.94
2023-05-19T10:25:10.981Z,25.95
2023-05-19T10:27:40.832Z,25.93
2023-05-19T10:30:15.036Z,25.84
2023-05-19T10:32:44.609Z,25.75
2023-05-19T10:35:47.278Z,25.66
2023-05-19T10:38:48.425Z,25.61
2023-05-19T10:41:43.996Z,25.61
2023-05-19T10:44:39.771Z,25.62
2023-05-19T10:47:08.052Z,25.67
2023-05-19T10:49:35.997Z,25.71
2023-05-19T10:52:03.033Z,25.78
2023-05-19T10:54:43.687Z,25.86
2023-05-19T10:57:17.451Z,25.91
2023-05-19T10:59:47.412Z,25.87
2023-05-19T11:02:36.885Z,25.82
2023-05-19T11:05:10.928Z,25.82
2023-05-19T11:07:38.010Z,25.83
2023-05-19T11:10:08.494Z,25.82
2023-05-19T11:12:45.418Z,25.75
2023-05-19T11:15:16.057Z,25.67
2023-05-19T11:17:45.766Z,25.59
2023-05-19T11:20:26.441Z,25.46
2023-05-19T11:23:15.933Z,25.31
2023-05-19T11:25:47.140Z,25.16
2023-05-19T11:28:25.899Z,25.07
2023-05-19T11:30:54.712Z,25.04
2023-05-19T11:33:21.799Z,25.02
2023-05-19T11:35:50.518Z,24.99
2023-05-19T11:38:19.028Z,24.97
2023-05-19T11:40:47.370Z,24.89
2023-05-19T11:43:14.411Z,24.80
2023-05-19T11:45:41.645Z,24.80
2023-05-19T11:48:12.807Z,24.77
2023-05-19T11:50:44.212Z,24.76
2023-05-19T11:53:13.306Z,24.71
2023-05-19T11:55:46.272Z,24.64
2023-05-19T11:58:13.642Z,24.61
2023-05-19T12:00:41.659Z,24.61
2023-05-19T12:03:09.440Z,24.61
2023-05-19T12:05:41.817Z,24.61
2023-05-19T12:08:11.166Z,24.61
2023-05-19T12:10:38.636Z,24.55
2023-05-19T12:13:08.310Z,24.47
2023-05-19T12:15:35.633Z,24.40
2023-05-19T12:18:03.188Z,24.38
2023-05-19T12:20:32.728Z,24.41
2023-05-19T12:23:00.389Z,24.43
2023-05-19T12:25:28.324Z,24.42
2023-05-19T12:28:04.965Z,24.37
2023-05-19T12:30:33.095Z,24.32
2023-05-19T12:33:01.839Z,24.23
2023-05-19T12:35:34.364Z,24.17
2023-05-19T12:38:05.366Z,24.16
2023-05-19T12:40:36.874Z,24.17
2023-05-19T12:43:04.214Z,24.19
2023-05-19T12:45:35.625Z,24.20
2023-05-19T12:48:06.972Z,24.21
2023-05-19T12:50:34.729Z,24.22
2023-05-19T12:53:02.202Z,24.21
2023-05-19T12:55:30.098Z,24.17
2023-05-19T12:57:58.472Z,24.08
2023-05-19T13:00:28.702Z,24.01
2023-05-19T13:03:00.114Z,23.95
2023-05-19T13:05:36.861Z,23.94
2023-05-19T13:08:08.666Z,23.95
2023-05-19T13:10:37.418Z,23.95
2023-05-19T13:13:04.728Z,23.96
2023-05-19T13:15:34.562Z,23.98
2023-05-19T13:18:03.269Z,23.97
2023-05-19T13:20:31.157Z,23.96
2023-05-19T13:22:58.841Z,23.93
2023-05-19T13:25:27.010Z,23.90
2023-05-19T13:27:54.879Z,23.90
2023-05-19T13:30:22.121Z,23.88
2023-05-19T13:32:49.225Z,23.85
2023-05-19T13:35:16.447Z,23.85
2023-05-19T13:37:43.606Z,23.87
2023-05-19T13:40:11.431Z,23.94
2023-05-19T13:42:38.528Z,24.00
2023-05-19T13:45:06.211Z,24.07
2023-05-19T13:47:33.410Z,24.12
2023-05-19T13:50:00.388Z,24.11
2023-05-19T13:52:29.814Z,24.00
2023-05-19T13:54:57.634Z,23.93
2023-05-19T13:57:27.907Z,23.91
2023-05-19T14:00:02.532Z,23.87
2023-05-19T14:02:39.842Z,23.88
2023-05-19T14:05:08.325Z,23.92
2023-05-19T14:07:35.698Z,23.95
2023-05-19T14:10:04.161Z,23.94
2023-05-19T14:12:40.396Z,23.90
2023-05-19T14:15:11.553Z,23.89
2023-05-19T14:17:39.411Z,23.88
2023-05-19T14:20:07.836Z,23.87
2023-05-19T14:22:34.740Z,23.85
2023-05-19T14:25:02.421Z,23.83
2023-05-19T14:27:29.704Z,23.80
2023-05-19T14:29:56.718Z,23.74
2023-05-19T14:32:23.751Z,23.68
2023-05-19T14:34:53.830Z,23.63
2023-05-19T14:37:21.090Z,23.59
2023-05-19T14:39:48.141Z,23.58
2023-05-19T14:42:15.067Z,23.57
2023-05-19T14:44:42.148Z,23.45
2023-05-19T14:47:11.439Z,23.26
2023-05-19T14:49:39.853Z,23.11
2023-05-19T14:52:08.534Z,23.05
2023-05-19T14:54:35.586Z,22.98
2023-05-19T14:57:03.269Z,22.92
2023-05-19T14:59:30.153Z,22.81
2023-05-19T15:01:57.072Z,22.70
2023-05-19T15:04:24.232Z,22.60
2023-05-19T15:07:05.680Z,22.56
2023-05-19T15:09:37.059Z,22.53
2023-05-19T15:12:04.074Z,22.56
2023-05-19T15:14:31.540Z,22.55
2023-05-19T15:16:59.175Z,22.52
2023-05-19T15:19:26.436Z,22.50
2023-05-19T15:21:53.764Z,22.47
2023-05-19T15:24:20.774Z,22.46
2023-05-19T15:26:47.751Z,22.44
2023-05-19T15:29:14.807Z,22.40
2023-05-19T15:31:42.145Z,22.36
2023-05-19T15:34:09.333Z,22.32
2023-05-19T15:36:36.479Z,22.31
2023-05-19T15:39:04.078Z,22.30
2023-05-19T15:41:30.966Z,22.26
2023-05-19T15:44:00.410Z,22.25
2023-05-19T15:46:27.771Z,22.22
2023-05-19T15:48:54.963Z,22.17
2023-05-19T15:51:22.213Z,22.13
2023-05-19T15:53:49.442Z,22.09
2023-05-19T15:56:16.703Z,22.05
2023-05-19T15:58:43.758Z,22.00
2023-05-19T16:01:10.970Z,21.96
2023-05-19T16:03:38.043Z,21.91
2023-05-19T16:06:05.222Z,21.90
2023-05-19T16:08:32.305Z,21.87
2023-05-19T16:10:59.341Z,21.82
2023-05-19T16:13:26.491Z,21.78
2023-05-19T16:15:53.451Z,21.77
2023-05-19T16:18:20.901Z,21.75
2023-05-19T16:20:47.799Z,21.71
2023-05-19T16:23:14.915Z,21.67
2023-05-19T16:25:42.209Z,21.65
2023-05-19T16:28:09.217Z,21.63
2023-05-19T16:30:36.710Z,21.59
2023-05-19T16:33:04.121Z,21.58
2023-05-19T16:35:31.273Z,21.54
2023-05-19T16:37:58.459Z,21.51
2023-05-19T16:40:26.238Z,21.50
2023-05-19T16:42:53.751Z,21.50
2023-05-19T16:45:20.731Z,21.46
2023-05-19T16:47:47.718Z,21.41
2023-05-19T16:50:14.979Z,21.39
2023-05-19T16:52:42.320Z,21.38
2023-05-19T16:55:09.992Z,21.34
2023-05-19T16:57:37.045Z,21.28
2023-05-19T17:00:04.835Z,21.24
2023-05-19T17:02:31.988Z,21.22
2023-05-19T17:04:59.200Z,21.23
2023-05-19T17:07:27.969Z,21.22
2023-05-19T17:09:56.074Z,21.20
2023-05-19T17:12:23.460Z,21.19
2023-05-19T17:14:52.180Z,21.19
2023-05-19T17:17:19.320Z,21.18
2023-05-19T17:19:47.016Z,21.17
2023-05-19T17:22:14.443Z,21.16
2023-05-19T17:24:42.098Z,21.14
2023-05-19T17:27:09.155Z,21.11
2023-05-19T17:29:36.907Z,21.08
2023-05-19T17:32:04.631Z,21.06
2023-05-19T17:34:31.755Z,21.03
2023-05-19T17:36:58.802Z,20.99
2023-05-19T17:39:25.691Z,20.95
2023-05-19T17:41:52.603Z,20.94
2023-05-19T17:44:19.756Z,20.92
2023-05-19T17:46:46.696Z,20.90
2023-05-19T17:49:14.036Z,20.87
2023-05-19T17:51:41.311Z,20.85
2023-05-19T17:54:08.787Z,20.84
2023-05-19T17:56:35.743Z,20.81
2023-05-19T17:59:03.245Z,20.80
2023-05-19T18:01:30.847Z,20.76
2023-05-19T18:03:58.538Z,20.74
2023-05-19T18:06:25.698Z,20.72
2023-05-19T18:08:53.572Z,20.71
2023-05-19T18:11:21.674Z,20.69
2023-05-19T18:13:48.744Z,20.69
2023-05-19T18:16:15.766Z,20.67
2023-05-19T18:18:44.718Z,20.66
2023-05-19T18:21:14.464Z,20.64
2023-05-19T18:23:41.587Z,20.62
2023-05-19T18:26:08.678Z,20.60
2023-05-19T18:28:35.732Z,20.59
2023-05-19T18:31:04.019Z,20.59
2023-05-19T18:33:31.319Z,20.57
2023-05-19T18:35:58.631Z,20.56
2023-05-19T18:38:25.684Z,20.54
2023-05-19T18:40:52.841Z,20.53
2023-05-19T18:43:19.706Z,20.51
2023-05-19T18:45:47.384Z,20.49
2023-05-19T18:48:15.809Z,20.48
2023-05-19T18:50:44.733Z,20.45
2023-05-19T18:53:12.002Z,20.43
2023-05-19T18:55:38.920Z,20.41
2023-05-19T18:58:06.350Z,20.39
2023-05-19T19:00:35.680Z,20.36
2023-05-19T19:03:03.013Z,20.33
2023-05-19T19:05:30.331Z,20.32
2023-05-19T19:07:57.704Z,20.29
2023-05-19T19:10:24.681Z,20.26
2023-05-19T19:12:51.608Z,20.25
2023-05-19T19:15:18.661Z,20.24
2023-05-19T19:17:45.942Z,20.22
2023-05-19T19:20:13.626Z,20.19
2023-05-19T19:22:40.743Z,20.17
2023-05-19T19:25:08.310Z,20.15
2023-05-19T19:27:35.790Z,20.13
2023-05-19T19:30:03.010Z,20.11
2023-05-19T19:32:31.667Z,20.09
2023-05-19T19:34:58.872Z,20.07
2023-05-19T19:37:25.857Z,20.04
2023-05-19T19:39:52.793Z,20.02
2023-05-19T19:42:19.935Z,20.00
2023-05-19T19:44:47.196Z,19.97
2023-05-19T19:47:14.254Z,19.94
2023-05-19T19:49:41.606Z,19.92
2023-05-19T19:52:08.584Z,19.89
2023-05-19T19:54:35.720Z,19.87
2023-05-19T19:57:02.629Z,19.84
2023-05-19T19:59:30.565Z,19.81
2023-05-19T20:01:57.675Z,19.78
2023-05-19T20:04:25.249Z,19.76
2023-05-19T20:06:52.618Z,19.74
2023-05-19T20:09:19.570Z,19.70
2023-05-19T20:11:46.412Z,19.68
2023-05-19T20:14:13.573Z,19.67
2023-05-19T20:16:41.324Z,19.65
2023-05-19T20:19:09.370Z,19.62
2023-05-19T20:21:36.683Z,19.60
2023-05-19T20:24:03.884Z,19.65
2023-05-19T20:26:31.811Z,19.58
2023-05-19T20:28:59.179Z,19.54
2023-05-19T20:31:26.197Z,19.52
2023-05-19T20:33:53.319Z,19.49
2023-05-19T20:36:20.438Z,19.54
2023-05-19T20:38:48.215Z,19.57
2023-05-19T20:41:15.254Z,19.56
2023-05-19T20:43:42.417Z,19.55
2023-05-19T20:46:09.630Z,19.54
2023-05-19T20:48:36.742Z,19.53
2023-05-19T20:51:04.011Z,19.51
2023-05-19T20:53:31.142Z,19.49
2023-05-19T20:55:58.201Z,19.49
2023-05-19T20:58:30.404Z,19.49
2023-05-19T21:00:58.150Z,19.47
2023-05-19T21:03:27.133Z,19.46
2023-05-19T21:05:55.221Z,19.45
2023-05-19T21:08:22.790Z,19.43
2023-05-19T21:10:49.834Z,19.42
2023-05-19T21:13:18.111Z,19.41
2023-05-19T21:15:45.378Z,19.38
2023-05-19T21:18:12.677Z,19.37
2023-05-19T21:20:39.891Z,19.35
2023-05-19T21:23:06.958Z,19.34
2023-05-19T21:25:34.002Z,19.32
2023-05-19T21:28:01.369Z,19.31
2023-05-19T21:30:28.538Z,19.29
2023-05-19T21:32:55.900Z,19.28
2023-05-19T21:35:23.134Z,19.27
2023-05-19T21:37:50.187Z,19.25
2023-05-19T21:40:17.168Z,19.23
2023-05-19T21:42:44.194Z,19.20
2023-05-19T21:45:11.700Z,19.18
2023-05-19T21:47:38.918Z,19.15
2023-05-19T21:50:06.984Z,19.13
2023-05-19T21:52:36.350Z,19.11
2023-05-19T21:55:03.450Z,19.09
2023-05-19T21:57:30.468Z,19.08
2023-05-19T21:59:57.567Z,19.07
2023-05-19T22:02:24.618Z,19.04
2023-05-19T22:04:51.974Z,19.02
2023-05-19T22:07:26.905Z,19.01
2023-05-19T22:09:54.266Z,19.01
2023-05-19T22:12:21.202Z,18.99
2023-05-19T22:14:48.221Z,18.98
2023-05-19T22:17:15.734Z,18.97
2023-05-19T22:19:42.802Z,18.95
2023-05-19T22:22:14.408Z,18.93
2023-05-19T22:24:42.123Z,18.93
2023-05-19T22:27:08.987Z,18.93
2023-05-19T22:29:38.946Z,18.93
2023-05-19T22:32:07.819Z,18.93
2023-05-19T22:34:34.772Z,18.92
2023-05-19T22:37:02.095Z,18.92
2023-05-19T22:39:28.979Z,18.91
2023-05-19T22:41:55.840Z,18.91
2023-05-19T22:44:22.716Z,18.90
2023-05-19T22:46:49.694Z,18.89
2023-05-19T22:49:16.764Z,18.86
2023-05-19T22:51:43.799Z,18.84
2023-05-19T22:54:10.953Z,18.82
2023-05-19T22:56:38.008Z,18.79
2023-05-19T22:59:05.158Z,18.76
2023-05-19T23:01:32.060Z,18.74
2023-05-19T23:03:59.207Z,18.71
2023-05-19T23:06:26.230Z,18.68
2023-05-19T23:09:03.920Z,18.66
2023-05-19T23:11:30.976Z,18.63
2023-05-19T23:13:57.921Z,18.60
2023-05-19T23:16:24.917Z,18.56
2023-05-19T23:18:51.950Z,18.53
2023-05-19T23:21:19.393Z,18.48
2023-05-19T23:23:46.574Z,18.44
2023-05-19T23:26:13.714Z,18.42
2023-05-19T23:29:03.676Z,18.38
2023-05-19T23:31:30.806Z,18.33
2023-05-19T23:33:57.989Z,18.30
2023-05-19T23:36:25.075Z,18.27
2023-05-19T23:38:51.941Z,18.25
2023-05-19T23:41:19.080Z,18.21
2023-05-19T23:43:45.952Z,18.19
2023-05-19T23:46:13.087Z,18.17
2023-05-19T23:48:40.227Z,18.15
2023-05-19T23:51:07.273Z,18.12
2023-05-19T23:53:34.339Z,18.09
2023-05-19T23:56:01.481Z,18.07
2023-05-19T23:58:28.384Z,18.05
